Terminal Aerodrome Forecast
Issued by NWS Atlanta, GA

Home | Current Version | Previous Version | Text Only | Print | Product List | Glossary On
Versions: 1 2 3 4 5 6 7 8 9 10 11 12 13 14 15 16 17 18 19 20
000
FTUS42 KFFC 071127
TAFMCN
TAF
KMCN 071127Z 0712/0812 26004KT P6SM FEW200
      TEMPO 0712/0714 3SM BR
     FM071600 27006KT P6SM FEW050
     FM080200 26005KT P6SM FEW150
     FM080900 28002KT P6SM SKC=

USA.gov is the U.S. government's official web portal to all federal, state and local government web resources and services.